Time;durP1;ratioP1;P1;durP2;ratioP2;P2;SDS_P1;SDS_P2;PMS_P1;PMS_P2;Temp;Humidity;BMP_temperature;BMP_pressure;BME280_temperature;BME280_humidity;BME280_pressure;Samples;Min_cycle;Max_cycle;Signal;HPM_P1;HPM_P2
2023/08/26 00:00:33;;;;;;;8.40;5.00;;;;;;;;;;4987006;28;20053;-72
2023/08/26 00:02:59;;;;;;;9.50;5.25;;;;;;;;;;4988827;28;20101;-73
2023/08/26 00:05:25;;;;;;;8.88;5.78;;;;;;;;;;4987212;28;20046;-74
2023/08/26 00:07:51;;;;;;;7.95;6.25;;;;;;;;;;4984456;28;20533;-73
2023/08/26 00:10:17;;;;;;;10.18;6.25;;;;;;;;;;4982434;28;20038;-73
2023/08/26 00:12:44;;;;;;;8.05;5.65;;;;;;;;;;4988618;28;20080;-72
2023/08/26 00:15:10;;;;;;;8.25;5.55;;;;;;;;;;4987871;28;20069;-73
2023/08/26 00:17:36;;;;;;;8.70;5.07;;;;;;;;;;4987296;28;20042;-74
2023/08/26 00:20:05;;;;;;;9.10;4.93;;;;;;;;;;4983722;28;20034;-73
2023/08/26 00:22:31;;;;;;;7.05;4.93;;;;;;;;;;4977298;28;20081;-72
2023/08/26 00:24:57;;;;;;;5.95;5.35;;;;;;;;;;4986188;28;20050;-72
2023/08/26 00:27:23;;;;;;;5.75;4.55;;;;;;;;;;4976839;28;20388;-72
2023/08/26 00:29:49;;;;;;;12.63;6.22;;;;;;;;;;4987143;28;20041;-72
2023/08/26 00:32:15;;;;;;;10.38;5.03;;;;;;;;;;4990440;28;20038;-73
2023/08/26 00:34:43;;;;;;;5.25;4.75;;;;;;;;;;4998598;28;20038;-72
2023/08/26 00:37:09;;;;;;;7.18;4.90;;;;;;;;;;4986082;28;20038;-72
2023/08/26 00:39:35;;;;;;;8.00;5.43;;;;;;;;;;4989389;28;20030;-72
2023/08/26 00:42:02;;;;;;;9.18;5.43;;;;;;;;;;4984877;28;20061;-71
2023/08/26 00:44:29;;;;;;;8.32;5.65;;;;;;;;;;4975951;28;20039;-72
2023/08/26 00:46:55;;;;;;;8.65;5.35;;;;;;;;;;5008048;28;20117;-72
2023/08/26 00:49:21;;;;;;;7.20;4.78;;;;;;;;;;4993091;28;20041;-72
2023/08/26 00:51:47;;;;;;;6.63;4.93;;;;;;;;;;4986494;28;20102;-72
2023/08/26 00:54:13;;;;;;;8.57;4.95;;;;;;;;;;4988718;28;20117;-71
2023/08/26 00:56:39;;;;;;;15.35;5.90;;;;;;;;;;4992716;28;20038;-74
2023/08/26 00:59:05;;;;;;;9.40;4.85;;;;;;;;;;4979422;28;20058;-73
2023/08/26 01:01:32;;;;;;;7.20;4.63;;;;;;;;;;4992229;28;20103;-73
2023/08/26 01:03:58;;;;;;;7.10;4.45;;;;;;;;;;4979199;28;20027;-72
2023/08/26 01:06:24;;;;;;;5.93;4.38;;;;;;;;;;4991284;28;20034;-74
2023/08/26 01:08:50;;;;;;;5.30;4.30;;;;;;;;;;5004202;28;20030;-72
2023/08/26 01:11:27;;;;;;;7.40;4.68;;;;;;;;;;4987342;28;20088;-74
2023/08/26 01:13:59;;;;;;;6.90;4.35;;;;;;;;;;4981473;28;20030;-72
2023/08/26 01:16:26;;;;;;;7.35;4.80;;;;;;;;;;4988214;28;20042;-72
2023/08/26 01:18:52;;;;;;;4.32;3.67;;;;;;;;;;4995098;28;20118;-73
2023/08/26 01:21:20;;;;;;;7.22;4.53;;;;;;;;;;4985489;28;20030;-72
2023/08/26 01:23:47;;;;;;;5.47;3.90;;;;;;;;;;4991212;28;20040;-71
2023/08/26 01:26:15;;;;;;;7.05;4.05;;;;;;;;;;4984783;28;20039;-71
2023/08/26 01:28:41;;;;;;;8.68;4.32;;;;;;;;;;4985400;28;20026;-71
2023/08/26 01:31:11;;;;;;;5.22;4.30;;;;;;;;;;4988096;28;20143;-73
2023/08/26 01:34:00;;;;;;;7.40;4.72;;;;;;;;;;4990184;28;20033;-71
2023/08/26 01:36:26;;;;;;;6.88;4.18;;;;;;;;;;4978982;28;20420;-72
2023/08/26 01:38:53;;;;;;;7.70;4.65;;;;;;;;;;4988900;28;20476;-72
2023/08/26 01:41:20;;;;;;;5.40;4.40;;;;;;;;;;4985584;28;20114;-72
2023/08/26 01:43:50;;;;;;;7.07;4.13;;;;;;;;;;4982576;28;20390;-72
2023/08/26 01:46:16;;;;;;;6.90;4.43;;;;;;;;;;4987810;28;20058;-72
2023/08/26 01:48:42;;;;;;;4.57;3.97;;;;;;;;;;4994616;28;20349;-72
2023/08/26 01:51:08;;;;;;;9.20;4.80;;;;;;;;;;4986602;28;20500;-73
2023/08/26 01:53:34;;;;;;;5.22;4.38;;;;;;;;;;4987688;28;20034;-71
2023/08/26 01:56:00;;;;;;;6.07;4.38;;;;;;;;;;4997171;28;20049;-71
2023/08/26 01:58:26;;;;;;;9.02;5.40;;;;;;;;;;4984537;28;20066;-73
2023/08/26 02:00:52;;;;;;;5.65;4.53;;;;;;;;;;4984358;28;20062;-72
2023/08/26 02:03:18;;;;;;;6.53;4.70;;;;;;;;;;4982853;28;20482;-72
2023/08/26 02:05:44;;;;;;;5.20;4.07;;;;;;;;;;4985364;28;20105;-73
2023/08/26 02:08:10;;;;;;;7.35;4.47;;;;;;;;;;4984622;28;20042;-72
2023/08/26 02:10:36;;;;;;;5.82;4.28;;;;;;;;;;4988222;28;20630;-72
2023/08/26 02:13:02;;;;;;;5.28;4.60;;;;;;;;;;4995426;28;20065;-71
2023/08/26 02:15:28;;;;;;;8.13;4.50;;;;;;;;;;4988485;28;20088;-72
2023/08/26 02:17:54;;;;;;;5.70;4.13;;;;;;;;;;4995562;28;20041;-72
2023/08/26 02:20:20;;;;;;;8.15;4.63;;;;;;;;;;4986374;28;20489;-72
2023/08/26 02:22:46;;;;;;;5.78;4.75;;;;;;;;;;4987626;28;20049;-72
2023/08/26 02:25:12;;;;;;;8.10;4.80;;;;;;;;;;4987804;28;20097;-71
2023/08/26 02:27:39;;;;;;;10.57;5.10;;;;;;;;;;4991150;28;20037;-72
2023/08/26 02:30:05;;;;;;;6.07;5.47;;;;;;;;;;4990232;28;20439;-72
2023/08/26 02:32:31;;;;;;;11.00;4.93;;;;;;;;;;4989555;28;20042;-72
2023/08/26 02:34:57;;;;;;;9.05;4.25;;;;;;;;;;4980657;28;20035;-71
2023/08/26 02:37:23;;;;;;;6.72;4.32;;;;;;;;;;4992841;28;20917;-72
2023/08/26 02:39:49;;;;;;;4.70;4.10;;;;;;;;;;4990290;28;20038;-73
2023/08/26 02:42:15;;;;;;;5.28;4.30;;;;;;;;;;4985736;28;20042;-72
2023/08/26 02:44:41;;;;;;;5.72;4.28;;;;;;;;;;4983787;28;20101;-71
2023/08/26 02:47:07;;;;;;;8.85;4.53;;;;;;;;;;4981842;28;20038;-71
2023/08/26 02:49:33;;;;;;;5.85;4.30;;;;;;;;;;4988334;28;20396;-72
2023/08/26 02:51:59;;;;;;;5.43;4.40;;;;;;;;;;4973987;28;20039;-71
2023/08/26 02:54:26;;;;;;;3.67;3.38;;;;;;;;;;4991888;28;20046;-72
2023/08/26 02:56:52;;;;;;;6.80;4.78;;;;;;;;;;4991711;28;20220;-73
2023/08/26 02:59:18;;;;;;;6.00;4.03;;;;;;;;;;4989673;28;20412;-72
2023/08/26 03:01:44;;;;;;;4.43;3.95;;;;;;;;;;4988111;28;20038;-71
2023/08/26 03:04:10;;;;;;;7.38;4.65;;;;;;;;;;4988592;28;20032;-72
2023/08/26 03:06:36;;;;;;;6.88;4.75;;;;;;;;;;4983762;28;20038;-72
2023/08/26 03:09:02;;;;;;;10.10;4.70;;;;;;;;;;4983289;28;20038;-72
2023/08/26 03:11:28;;;;;;;5.60;4.15;;;;;;;;;;4977700;28;20797;-72
2023/08/26 03:13:54;;;;;;;4.85;3.90;;;;;;;;;;4994261;28;20500;-73
2023/08/26 03:16:20;;;;;;;5.45;4.20;;;;;;;;;;4985941;28;20124;-72
2023/08/26 03:18:46;;;;;;;9.43;4.30;;;;;;;;;;4982378;28;20038;-72
2023/08/26 03:21:12;;;;;;;6.68;3.90;;;;;;;;;;4988663;28;20034;-72
2023/08/26 03:23:38;;;;;;;4.82;3.90;;;;;;;;;;4993068;28;20033;-72
2023/08/26 03:26:04;;;;;;;6.07;3.85;;;;;;;;;;4995232;28;20038;-71
2023/08/26 03:28:31;;;;;;;4.70;3.85;;;;;;;;;;4987569;28;20535;-73
2023/08/26 03:31:05;;;;;;;8.20;3.67;;;;;;;;;;4979695;28;20034;-72
2023/08/26 03:33:31;;;;;;;5.55;3.40;;;;;;;;;;4983793;28;20121;-72
2023/08/26 03:35:56;;;;;;;6.40;3.80;;;;;;;;;;4990760;28;20512;-72
2023/08/26 03:38:22;;;;;;;8.75;3.60;;;;;;;;;;4991669;28;20092;-73
2023/08/26 03:40:49;;;;;;;4.22;3.55;;;;;;;;;;4989242;28;20088;-71
2023/08/26 03:43:15;;;;;;;4.25;3.47;;;;;;;;;;4997056;28;20034;-72
2023/08/26 03:45:41;;;;;;;10.43;3.58;;;;;;;;;;4994263;28;20050;-71
2023/08/26 03:48:07;;;;;;;7.13;4.80;;;;;;;;;;4992388;28;20031;-72
2023/08/26 03:50:33;;;;;;;4.10;3.17;;;;;;;;;;4984335;28;20092;-73
2023/08/26 03:52:59;;;;;;;3.45;3.15;;;;;;;;;;4986944;28;20045;-72
2023/08/26 03:55:25;;;;;;;7.40;3.17;;;;;;;;;;4979817;28;20038;-72
2023/08/26 03:57:51;;;;;;;5.13;3.47;;;;;;;;;;4994980;28;20049;-72
2023/08/26 04:00:17;;;;;;;8.35;4.25;;;;;;;;;;4990014;28;20542;-72
2023/08/26 04:02:43;;;;;;;6.93;3.40;;;;;;;;;;4986091;28;20042;-73
2023/08/26 04:05:09;;;;;;;4.40;3.40;;;;;;;;;;4983947;28;20042;-73
2023/08/26 04:07:35;;;;;;;5.05;3.25;;;;;;;;;;4990239;28;20105;-72
2023/08/26 04:10:03;;;;;;;8.30;4.57;;;;;;;;;;4980562;28;20042;-72
2023/08/26 04:12:29;;;;;;;11.15;4.82;;;;;;;;;;4991711;28;20030;-73
2023/08/26 04:14:55;;;;;;;6.63;3.63;;;;;;;;;;4986739;28;20052;-73
2023/08/26 04:17:21;;;;;;;5.53;3.17;;;;;;;;;;4983082;28;20507;-72
2023/08/26 04:19:47;;;;;;;6.00;3.03;;;;;;;;;;4983659;28;20049;-73
2023/08/26 04:22:13;;;;;;;3.95;2.75;;;;;;;;;;4982951;28;20141;-72
2023/08/26 04:24:39;;;;;;;4.68;2.80;;;;;;;;;;4982963;28;20463;-73
2023/08/26 04:27:05;;;;;;;5.25;3.03;;;;;;;;;;4986696;28;20045;-73
2023/08/26 04:29:31;;;;;;;11.18;3.97;;;;;;;;;;4988993;28;20081;-73
2023/08/26 04:31:57;;;;;;;96.55;55.58;;;;;;;;;;4992363;28;20666;-72
2023/08/26 04:34:23;;;;;;;6.72;4.57;;;;;;;;;;4990836;28;20038;-74
2023/08/26 04:36:49;;;;;;;8.75;5.10;;;;;;;;;;4994558;28;20030;-74
2023/08/26 04:39:17;;;;;;;6.65;4.75;;;;;;;;;;4985926;28;20050;-74
2023/08/26 04:41:45;;;;;;;6.53;3.42;;;;;;;;;;4984267;28;20033;-74
2023/08/26 04:44:12;;;;;;;6.43;3.03;;;;;;;;;;4996324;28;20040;-76
2023/08/26 04:46:38;;;;;;;6.93;3.50;;;;;;;;;;4988731;28;20374;-73
2023/08/26 04:49:04;;;;;;;5.90;2.85;;;;;;;;;;4981606;28;20089;-73
2023/08/26 04:51:30;;;;;;;7.70;3.90;;;;;;;;;;4978779;28;20599;-76
2023/08/26 04:53:56;;;;;;;6.28;2.80;;;;;;;;;;4986376;28;20074;-77
2023/08/26 04:56:22;;;;;;;5.25;2.90;;;;;;;;;;4992001;28;20038;-76
2023/08/26 04:58:48;;;;;;;5.07;3.13;;;;;;;;;;4990223;28;20128;-75
2023/08/26 05:01:14;;;;;;;5.25;3.65;;;;;;;;;;4986490;28;20629;-75
2023/08/26 05:03:40;;;;;;;58.75;35.88;;;;;;;;;;4984663;28;20034;-75
2023/08/26 05:06:06;;;;;;;43.10;20.98;;;;;;;;;;4991222;28;20045;-77
2023/08/26 05:08:32;;;;;;;7.85;4.40;;;;;;;;;;4998917;28;20415;-77
2023/08/26 05:10:58;;;;;;;7.35;4.10;;;;;;;;;;4990590;28;20034;-77
2023/08/26 05:13:24;;;;;;;6.43;4.78;;;;;;;;;;4981584;28;20031;-73
2023/08/26 05:15:50;;;;;;;7.63;4.93;;;;;;;;;;4979848;28;20053;-73
2023/08/26 05:18:18;;;;;;;7.82;4.07;;;;;;;;;;4979441;28;20064;-73
2023/08/26 05:20:45;;;;;;;7.20;3.97;;;;;;;;;;4987382;28;20042;-72
2023/08/26 05:23:12;;;;;;;7.18;3.83;;;;;;;;;;4983956;28;20034;-71
2023/08/26 05:25:38;;;;;;;8.68;3.90;;;;;;;;;;4988556;28;20061;-73
2023/08/26 05:28:07;;;;;;;10.43;3.88;;;;;;;;;;4982231;28;20046;-72
2023/08/26 05:30:33;;;;;;;6.75;2.72;;;;;;;;;;4993590;28;20083;-71
2023/08/26 05:32:59;;;;;;;6.85;3.17;;;;;;;;;;4989974;28;20065;-71
2023/08/26 05:35:26;;;;;;;3.70;2.50;;;;;;;;;;4989261;28;20035;-71
2023/08/26 05:37:52;;;;;;;9.60;2.92;;;;;;;;;;4990253;28;20129;-71
2023/08/26 05:40:18;;;;;;;4.15;3.00;;;;;;;;;;4990460;28;20141;-71
2023/08/26 05:42:44;;;;;;;4.70;1.60;;;;;;;;;;4991163;28;20133;-72
2023/08/26 05:45:10;;;;;;;4.63;1.58;;;;;;;;;;4986313;28;20077;-72
2023/08/26 05:47:36;;;;;;;4.30;1.35;;;;;;;;;;4984771;28;20615;-73
2023/08/26 05:50:03;;;;;;;4.57;1.70;;;;;;;;;;4989059;28;20076;-74
2023/08/26 05:52:29;;;;;;;5.53;1.85;;;;;;;;;;4985634;28;20031;-73
2023/08/26 05:54:55;;;;;;;4.13;1.60;;;;;;;;;;4992626;28;20036;-73
2023/08/26 05:57:21;;;;;;;1.90;1.30;;;;;;;;;;4985248;28;20121;-72
2023/08/26 05:59:47;;;;;;;4.32;1.77;;;;;;;;;;4984029;28;20335;-72
2023/08/26 06:02:13;;;;;;;8.45;1.42;;;;;;;;;;4981682;28;20436;-72
2023/08/26 06:04:39;;;;;;;4.55;2.10;;;;;;;;;;4988391;28;20043;-72
2023/08/26 06:07:05;;;;;;;1.80;1.52;;;;;;;;;;4986378;28;20476;-74
2023/08/26 06:09:31;;;;;;;1.95;1.45;;;;;;;;;;4989918;28;20557;-73
2023/08/26 06:11:57;;;;;;;4.68;1.75;;;;;;;;;;4981479;28;20031;-72
2023/08/26 06:14:23;;;;;;;2.65;1.52;;;;;;;;;;4993768;28;20459;-73
2023/08/26 06:16:49;;;;;;;3.17;1.80;;;;;;;;;;4986876;28;20384;-73
2023/08/26 06:19:15;;;;;;;5.72;1.70;;;;;;;;;;4980884;28;20102;-73
2023/08/26 06:21:41;;;;;;;4.90;1.85;;;;;;;;;;4995236;28;20038;-73
2023/08/26 06:24:07;;;;;;;3.20;1.60;;;;;;;;;;4982743;28;20039;-72
2023/08/26 06:26:33;;;;;;;3.35;2.08;;;;;;;;;;4988695;28;20117;-72
2023/08/26 06:28:59;;;;;;;4.32;2.47;;;;;;;;;;4987593;28;20121;-73
2023/08/26 06:31:25;;;;;;;3.40;2.38;;;;;;;;;;4985730;28;20380;-73
2023/08/26 06:33:51;;;;;;;7.72;3.70;;;;;;;;;;4993418;28;20527;-72
2023/08/26 06:36:17;;;;;;;7.28;3.10;;;;;;;;;;4984942;28;20112;-72
2023/08/26 06:38:43;;;;;;;5.32;4.05;;;;;;;;;;4982308;28;20043;-74
2023/08/26 06:41:09;;;;;;;8.75;4.15;;;;;;;;;;4986702;28;20068;-74
2023/08/26 06:43:35;;;;;;;9.50;4.22;;;;;;;;;;4985182;28;20388;-73
2023/08/26 06:46:02;;;;;;;6.15;4.65;;;;;;;;;;4984165;28;20065;-73
2023/08/26 06:48:28;;;;;;;10.27;5.93;;;;;;;;;;4991656;28;20030;-72
2023/08/26 06:50:54;;;;;;;8.63;5.75;;;;;;;;;;4986780;28;20022;-74
2023/08/26 06:53:21;;;;;;;13.95;6.63;;;;;;;;;;4987830;28;20034;-72
2023/08/26 06:55:50;;;;;;;12.25;7.55;;;;;;;;;;4990569;28;20054;-73
2023/08/26 06:58:17;;;;;;;12.18;8.10;;;;;;;;;;4994486;28;20454;-73
2023/08/26 07:00:43;;;;;;;10.45;7.57;;;;;;;;;;4985696;28;20035;-75
2023/08/26 07:03:10;;;;;;;20.55;7.93;;;;;;;;;;4973455;28;20077;-74
2023/08/26 07:05:36;;;;;;;13.75;9.23;;;;;;;;;;4985621;28;20034;-74
2023/08/26 07:08:02;;;;;;;14.52;9.25;;;;;;;;;;4988369;28;20369;-77
2023/08/26 07:10:29;;;;;;;12.13;9.68;;;;;;;;;;4987825;28;20055;-78
2023/08/26 07:12:55;;;;;;;18.35;9.30;;;;;;;;;;4986621;28;20447;-77
2023/08/26 07:15:21;;;;;;;18.63;11.57;;;;;;;;;;4987800;28;20428;-78
2023/08/26 07:17:47;;;;;;;15.13;9.88;;;;;;;;;;4987926;28;20389;-80
2023/08/26 07:20:13;;;;;;;19.73;11.20;;;;;;;;;;4982371;28;20045;-75
2023/08/26 07:22:39;;;;;;;17.55;10.13;;;;;;;;;;4980529;28;20289;-75
2023/08/26 07:25:05;;;;;;;20.05;10.88;;;;;;;;;;4978966;28;20030;-75
2023/08/26 07:27:31;;;;;;;13.80;10.05;;;;;;;;;;4987851;28;20154;-74
2023/08/26 07:29:57;;;;;;;15.75;10.55;;;;;;;;;;4982628;28;20113;-76
2023/08/26 07:32:25;;;;;;;18.52;10.55;;;;;;;;;;4979715;28;20196;-75
2023/08/26 07:34:55;;;;;;;15.32;10.38;;;;;;;;;;4985672;28;20042;-74
2023/08/26 07:37:21;;;;;;;20.45;10.73;;;;;;;;;;4985294;28;20034;-75
2023/08/26 07:39:49;;;;;;;53.28;38.83;;;;;;;;;;4983584;28;20734;-76
2023/08/26 07:42:15;;;;;;;18.40;11.48;;;;;;;;;;4996870;28;20029;-76
2023/08/26 07:44:41;;;;;;;14.52;10.77;;;;;;;;;;4980753;28;20163;-76
2023/08/26 07:47:07;;;;;;;18.65;11.90;;;;;;;;;;4979270;28;20031;-76
2023/08/26 07:49:33;;;;;;;19.95;12.23;;;;;;;;;;4981350;28;20054;-76
2023/08/26 07:51:59;;;;;;;17.38;12.05;;;;;;;;;;4984496;28;20176;-76
2023/08/26 07:54:25;;;;;;;15.73;11.48;;;;;;;;;;4999161;28;20034;-75
2023/08/26 07:56:51;;;;;;;20.70;10.73;;;;;;;;;;4982832;28;20042;-74
2023/08/26 07:59:17;;;;;;;15.32;11.43;;;;;;;;;;4993385;28;20037;-77
2023/08/26 08:01:43;;;;;;;14.40;10.23;;;;;;;;;;4985220;28;20027;-75
2023/08/26 08:04:09;;;;;;;11.93;10.13;;;;;;;;;;4982884;28;20111;-74
2023/08/26 08:06:35;;;;;;;12.55;9.27;;;;;;;;;;4987936;28;20092;-75
2023/08/26 08:09:01;;;;;;;15.82;9.82;;;;;;;;;;4994618;28;20460;-75
2023/08/26 08:11:27;;;;;;;11.82;8.70;;;;;;;;;;4991834;28;20040;-74
2023/08/26 08:13:54;;;;;;;13.60;9.45;;;;;;;;;;4984697;28;20035;-75
2023/08/26 08:16:20;;;;;;;20.00;9.25;;;;;;;;;;4990942;28;20042;-72
2023/08/26 08:18:46;;;;;;;14.52;8.10;;;;;;;;;;4991960;28;20035;-75
2023/08/26 08:21:12;;;;;;;12.70;8.77;;;;;;;;;;4994067;28;20104;-73
2023/08/26 08:23:38;;;;;;;9.93;7.47;;;;;;;;;;4995910;28;20061;-77
2023/08/26 08:26:04;;;;;;;10.23;7.97;;;;;;;;;;4987297;28;20038;-74
2023/08/26 08:28:30;;;;;;;11.95;7.90;;;;;;;;;;4986109;28;20105;-77
2023/08/26 08:30:56;;;;;;;16.35;8.90;;;;;;;;;;4988963;28;20169;-75
2023/08/26 08:33:22;;;;;;;9.20;7.03;;;;;;;;;;4987815;28;20032;-74
2023/08/26 08:35:48;;;;;;;14.40;9.93;;;;;;;;;;4986127;28;20102;-75
2023/08/26 08:38:14;;;;;;;23.70;15.95;;;;;;;;;;4984946;28;20048;-75
2023/08/26 08:40:41;;;;;;;9.18;6.63;;;;;;;;;;4982786;28;20031;-77
2023/08/26 08:43:08;;;;;;;12.23;7.85;;;;;;;;;;4974148;28;20031;-77
2023/08/26 08:45:34;;;;;;;8.98;7.00;;;;;;;;;;4986991;28;20050;-72
2023/08/26 08:48:00;;;;;;;11.88;6.43;;;;;;;;;;4983633;28;20058;-73
2023/08/26 08:50:26;;;;;;;7.50;5.50;;;;;;;;;;4979625;28;20042;-73
2023/08/26 08:52:55;;;;;;;11.00;6.63;;;;;;;;;;4989175;28;20080;-73
2023/08/26 08:55:22;;;;;;;9.43;5.53;;;;;;;;;;4982435;28;20038;-74
2023/08/26 08:57:49;;;;;;;10.40;5.55;;;;;;;;;;4980654;28;20157;-74
2023/08/26 09:00:15;;;;;;;7.00;5.05;;;;;;;;;;4987473;28;20480;-75
2023/08/26 09:02:41;;;;;;;8.98;5.28;;;;;;;;;;4994190;28;20034;-76
2023/08/26 09:05:08;;;;;;;11.90;5.30;;;;;;;;;;4999168;28;20025;-75
2023/08/26 09:07:36;;;;;;;14.25;5.60;;;;;;;;;;4980016;28;20407;-75
2023/08/26 09:10:02;;;;;;;12.68;5.70;;;;;;;;;;4988405;28;20398;-74
2023/08/26 09:12:32;;;;;;;5.57;4.22;;;;;;;;;;4985435;28;20023;-74
2023/08/26 09:14:58;;;;;;;7.55;4.43;;;;;;;;;;4988146;28;20038;-76
2023/08/26 09:17:24;;;;;;;12.60;6.10;;;;;;;;;;4986436;28;20078;-74
2023/08/26 09:19:54;;;;;;;10.00;6.65;;;;;;;;;;4994786;28;20035;-75
2023/08/26 09:22:23;;;;;;;15.70;6.60;;;;;;;;;;4994334;28;20117;-75
2023/08/26 09:24:53;;;;;;;8.02;5.40;;;;;;;;;;4992256;28;20044;-75
2023/08/26 09:27:19;;;;;;;7.75;3.97;;;;;;;;;;4993841;28;20484;-73
2023/08/26 09:29:46;;;;;;;5.72;2.72;;;;;;;;;;4989392;28;20045;-73
2023/08/26 09:32:12;;;;;;;5.88;2.85;;;;;;;;;;4987417;28;20038;-72
2023/08/26 09:34:38;;;;;;;8.15;3.20;;;;;;;;;;4988636;28;20109;-72
2023/08/26 09:37:07;;;;;;;13.10;2.63;;;;;;;;;;4988404;28;20186;-71
2023/08/26 09:39:33;;;;;;;5.47;2.50;;;;;;;;;;5003506;28;20038;-72
2023/08/26 09:42:00;;;;;;;4.95;2.03;;;;;;;;;;4986686;28;20030;-73
2023/08/26 09:44:27;;;;;;;9.88;2.53;;;;;;;;;;4986935;28;20030;-73
2023/08/26 09:46:56;;;;;;;7.03;2.75;;;;;;;;;;5002586;28;20500;-72
2023/08/26 09:49:22;;;;;;;11.40;3.20;;;;;;;;;;4986214;28;20117;-73
2023/08/26 09:51:54;;;;;;;10.95;3.78;;;;;;;;;;4995364;28;20225;-72
2023/08/26 09:54:21;;;;;;;6.43;2.35;;;;;;;;;;4997522;28;20026;-73
2023/08/26 09:56:48;;;;;;;8.50;2.00;;;;;;;;;;4998739;28;20076;-72
2023/08/26 09:59:15;;;;;;;5.97;1.73;;;;;;;;;;4987916;28;20619;-73
2023/08/26 10:01:42;;;;;;;7.63;3.05;;;;;;;;;;4983011;28;20042;-74
2023/08/26 10:04:11;;;;;;;2.78;1.83;;;;;;;;;;4984179;28;20054;-73
2023/08/26 10:06:44;;;;;;;6.63;1.67;;;;;;;;;;4996914;28;20048;-74
2023/08/26 10:09:13;;;;;;;2.58;1.00;;;;;;;;;;4984673;28;20449;-74
2023/08/26 10:11:41;;;;;;;2.13;0.98;;;;;;;;;;4986251;28;20165;-73
2023/08/26 10:14:11;;;;;;;1.55;0.90;;;;;;;;;;4988068;28;20400;-76
2023/08/26 10:16:39;;;;;;;3.78;1.05;;;;;;;;;;4985226;28;20089;-74
2023/08/26 10:19:05;;;;;;;5.63;1.48;;;;;;;;;;4985870;28;20030;-74
2023/08/26 10:21:32;;;;;;;4.32;1.15;;;;;;;;;;4984798;28;20043;-76
2023/08/26 10:23:58;;;;;;;3.00;1.52;;;;;;;;;;4979145;28;20072;-75
2023/08/26 10:26:24;;;;;;;7.70;2.10;;;;;;;;;;4988812;28;20057;-74
2023/08/26 10:28:50;;;;;;;4.32;2.08;;;;;;;;;;4995646;28;20104;-75
2023/08/26 10:31:16;;;;;;;6.38;2.60;;;;;;;;;;4993536;28;20049;-76
2023/08/26 10:34:01;;;;;;;4.05;1.80;;;;;;;;;;4981364;28;20038;-85
2023/08/26 10:36:27;;;;;;;3.38;1.80;;;;;;;;;;4990871;28;20137;-85
2023/08/26 10:39:00;;;;;;;2.95;1.95;;;;;;;;;;4997647;28;20026;-85
2023/08/26 10:41:26;;;;;;;5.68;1.90;;;;;;;;;;4979532;28;20035;-87
2023/08/26 10:43:56;;;;;;;5.43;2.28;;;;;;;;;;4982881;28;20129;-88
2023/08/26 10:46:35;;;;;;;3.42;1.85;;;;;;;;;;4981811;28;20061;-88
2023/08/26 10:49:03;;;;;;;5.65;2.50;;;;;;;;;;4979524;28;20023;-83
2023/08/26 10:51:29;;;;;;;4.07;2.33;;;;;;;;;;4985355;28;20026;-85
2023/08/26 10:54:02;;;;;;;16.58;12.30;;;;;;;;;;4982005;28;20120;-81
2023/08/26 10:56:28;;;;;;;13.15;8.35;;;;;;;;;;4990049;28;20042;-86
2023/08/26 10:59:00;;;;;;;3.42;2.05;;;;;;;;;;4984289;28;20733;-84
2023/08/26 11:01:26;;;;;;;5.32;1.77;;;;;;;;;;4979401;28;20034;-81
2023/08/26 11:03:53;;;;;;;4.13;1.98;;;;;;;;;;4986487;28;20031;-79
2023/08/26 11:06:25;;;;;;;6.25;4.72;;;;;;;;;;4994287;28;20038;-81
2023/08/26 11:08:51;;;;;;;;;;;;;;;;;;4984185;28;20034;-80
2023/08/26 11:11:17;;;;;;;9.80;4.05;;;;;;;;;;4986625;28;20375;-82
2023/08/26 11:13:43;;;;;;;7.28;3.88;;;;;;;;;;4991662;28;20069;-83
2023/08/26 11:16:09;;;;;;;4.60;2.38;;;;;;;;;;4984298;28;20042;-80
2023/08/26 11:18:35;;;;;;;3.35;1.13;;;;;;;;;;4985573;28;20022;-80
2023/08/26 11:21:04;;;;;;;1.92;1.20;;;;;;;;;;4984925;28;20030;-86
2023/08/26 11:23:30;;;;;;;4.15;1.15;;;;;;;;;;4987332;28;20037;-79
2023/08/26 11:25:56;;;;;;;4.78;2.47;;;;;;;;;;4992425;28;20032;-79
2023/08/26 11:28:22;;;;;;;7.05;5.78;;;;;;;;;;4996692;28;20493;-84
2023/08/26 11:30:49;;;;;;;1.92;1.17;;;;;;;;;;4993004;28;20066;-82
2023/08/26 11:33:16;;;;;;;1.63;1.08;;;;;;;;;;4987494;28;20026;-73
2023/08/26 11:35:43;;;;;;;1.23;0.73;;;;;;;;;;4984043;28;20058;-74
2023/08/26 11:38:09;;;;;;;3.50;0.80;;;;;;;;;;4981761;28;20036;-76
2023/08/26 11:40:35;;;;;;;1.95;0.60;;;;;;;;;;4986359;28;20030;-74
2023/08/26 11:43:08;;;;;;;1.48;0.70;;;;;;;;;;4991564;28;20543;-74
2023/08/26 11:45:38;;;;;;;1.80;0.63;;;;;;;;;;4985463;28;20120;-76
2023/08/26 11:48:04;;;;;;;1.80;0.63;;;;;;;;;;4978409;28;20035;-74
2023/08/26 11:50:31;;;;;;;3.25;0.57;;;;;;;;;;4981864;28;20323;-74
2023/08/26 11:52:57;;;;;;;2.42;0.90;;;;;;;;;;4984405;28;20190;-73
2023/08/26 11:55:28;;;;;;;2.85;0.60;;;;;;;;;;4985381;28;20105;-73
2023/08/26 11:57:54;;;;;;;3.45;0.93;;;;;;;;;;4985467;28;20720;-73
2023/08/26 12:00:20;;;;;;;3.15;1.20;;;;;;;;;;4979012;28;20030;-73
2023/08/26 12:02:47;;;;;;;2.30;0.80;;;;;;;;;;4986233;28;20070;-74
2023/08/26 12:05:15;;;;;;;1.73;0.70;;;;;;;;;;4983948;28;20100;-73
2023/08/26 12:07:47;;;;;;;2.83;1.10;;;;;;;;;;4985265;28;20034;-74
2023/08/26 12:10:13;;;;;;;;;;;;;;;;;;4990559;28;20142;-74
2023/08/26 12:12:40;;;;;;;2.90;0.95;;;;;;;;;;4992303;28;20458;-73
2023/08/26 12:15:06;;;;;;;28.33;16.10;;;;;;;;;;4983760;28;20026;-81
2023/08/26 12:17:42;;;;;;;9.13;3.53;;;;;;;;;;4984557;28;20403;-82
2023/08/26 12:20:24;;;;;;;4.13;1.45;;;;;;;;;;4988962;28;20076;-73
2023/08/26 12:22:50;;;;;;;3.22;1.20;;;;;;;;;;4983255;28;20041;-74
2023/08/26 12:25:23;;;;;;;2.80;1.20;;;;;;;;;;4986028;28;20483;-74
2023/08/26 12:27:48;;;;;;;;;;;22.50;99.90;;;;;;4991524;28;20034;-72
2023/08/26 12:30:14;;;;;;;2.88;1.33;;;;;;;;;;4994126;28;19917;-75
2023/08/26 12:32:40;;;;;;;2.95;1.40;;;;;;;;;;4982974;28;20040;-76
2023/08/26 12:35:08;;;;;;;3.13;1.00;;;;;;;;;;5002416;28;20117;-74
2023/08/26 12:37:34;;;;;;;1.40;1.05;;;;;;;;;;4991578;28;20034;-75
2023/08/26 12:40:04;;;;;;;2.88;0.85;;;;;;;;;;4993846;28;20034;-74
2023/08/26 12:42:30;;;;;;;1.75;1.08;;;;;;;;;;4990794;28;20040;-74
2023/08/26 12:44:56;;;;;;;2.15;1.25;;;;;;;;;;4990324;28;20097;-74
2023/08/26 12:47:22;;;;;;;5.63;1.10;;;;;;;;;;4985540;28;20034;-73
2023/08/26 12:49:48;;;;;;;5.25;1.67;;;;;;;;;;4988980;28;20125;-78
2023/08/26 12:52:14;;;;;;;4.53;1.60;;;;;;;;;;4991283;28;20114;-73
2023/08/26 12:54:40;;;;;;;3.85;1.35;;;;;;;;;;4987076;28;20034;-73
2023/08/26 12:57:06;;;;;;;4.05;1.65;;;;;;;;;;4990727;28;20038;-72
2023/08/26 12:59:32;;;;;;;3.03;1.40;;;;;;;;;;4991139;28;20038;-74
2023/08/26 13:01:58;;;;;;;3.60;1.48;;;;;;;;;;4982592;28;20031;-76
2023/08/26 13:04:24;;;;;;;3.38;1.67;;;;;;;;;;4981151;28;20529;-75
2023/08/26 13:06:50;;;;;;;2.67;1.42;;;;;;;;;;4993660;28;20100;-75
2023/08/26 13:09:16;;;;;;;4.75;1.63;;;;;;;;;;4992521;28;20088;-75
2023/08/26 13:11:42;;;;;;;3.67;1.58;;;;;;;;;;4989632;28;20124;-75
2023/08/26 13:14:10;;;;;;;3.60;1.38;;;;;;;;;;4981735;28;20456;-74
2023/08/26 13:16:36;;;;;;;3.78;1.40;;;;;;;;;;4994125;28;20038;-76
2023/08/26 13:19:02;;;;;;;4.05;1.52;;;;;;;;;;4986744;28;20054;-75
2023/08/26 13:21:28;;;;;;;3.20;1.00;;;;;;;;;;4983934;28;20034;-74
2023/08/26 13:23:54;;;;;;;6.47;1.05;;;;;;;;;;4992719;28;20042;-73
2023/08/26 13:26:20;;;;;;;40.92;27.02;;;;;;;;;;4991472;28;20042;-72
2023/08/26 13:28:46;;;;;;;2.13;1.20;;;;;;;;;;4994820;28;20057;-72
2023/08/26 13:31:12;;;;;;;5.20;1.40;;;;;;;;;;4991156;28;20041;-73
2023/08/26 13:33:38;;;;;;;4.72;1.80;;;;;;;;;;4989726;28;20489;-73
2023/08/26 13:36:05;;;;;;;5.00;1.30;;;;;;;;;;4992555;28;20065;-76
2023/08/26 13:38:31;;;;;;;2.90;2.08;;;;;;;;;;4986519;28;20034;-75
2023/08/26 13:40:57;;;;;;;2.92;1.70;;;;;;;;;;4986405;28;20053;-76
2023/08/26 13:43:23;;;;;;;4.75;1.88;;;;;;;;;;4981668;28;20026;-77
2023/08/26 13:45:49;;;;;;;3.28;2.03;;;;;;;;;;4989092;28;20408;-79
2023/08/26 13:48:15;;;;;;;4.03;2.58;;;;;;;;;;4986871;28;20036;-77
2023/08/26 13:50:41;;;;;;;3.28;1.98;;;;;;;;;;4988087;28;20445;-75
2023/08/26 13:53:07;;;;;;;4.10;2.85;;;;;;;;;;4989069;28;20096;-76
2023/08/26 13:55:33;;;;;;;5.38;2.35;;;;;;;;;;4986778;28;20034;-74
2023/08/26 13:57:59;;;;;;;6.43;3.13;;;;;;;;;;4989760;28;20621;-74
2023/08/26 14:00:25;;;;;;;9.38;4.60;;;;;;;;;;4984752;28;20038;-73
2023/08/26 14:02:51;;;;;;;4.68;2.55;;;;;;;;;;4983200;28;20034;-73
2023/08/26 14:05:17;;;;;;;5.82;2.70;;;;;;;;;;4986824;28;20042;-76
2023/08/26 14:07:44;;;;;;;3.88;2.38;;;;;;;;;;4984439;28;20110;-76
2023/08/26 14:10:11;;;;;;;4.45;2.42;;;;;;;;;;4990229;28;20030;-78
2023/08/26 14:12:40;;;;;;;3.03;2.38;;;;;;;;;;4986833;28;20037;-75
2023/08/26 14:15:07;;;;;;;2.67;1.98;;;;;;;;;;4982362;28;20027;-75
2023/08/26 14:17:34;;;;;;;5.50;2.10;;;;;;;;;;4986946;28;20042;-76
2023/08/26 14:20:00;;;;;;;2.92;1.50;;;;;;;;;;4985663;28;20037;-75
2023/08/26 14:22:26;;;;;;;2.30;1.63;;;;;;;;;;4985004;28;20022;-75
2023/08/26 14:24:52;;;;;;;2.45;1.50;;;;;;;;;;4988224;28;20523;-74
2023/08/26 14:27:18;;;;;;;2.33;1.25;;;;;;;;;;4980744;28;20026;-76
2023/08/26 14:29:44;;;;;;;3.42;0.90;;;;;;;;;;4989665;28;20452;-74
2023/08/26 14:32:10;;;;;;;4.32;1.05;;;;;;;;;;4981840;28;20472;-77
2023/08/26 14:34:36;;;;;;;2.15;0.90;;;;;;;;;;4986835;28;21013;-76
2023/08/26 14:37:02;;;;;;;1.25;0.75;;;;;;;;;;4976805;28;20541;-73